Monteagle, Tennessee
Current Conditions -  °F | °C
As of 10:55 AM on Saturday 25 Oct 2014 (Local Time) from KBGF Reporting Station
Clear Clear  
Wind Chill: 64°   Ceiling: Unl
Heat Index: 64°   Visibility: 10mi
Dew Point: 52°   Wind: 3mph
Humidity: 64%   Direction: NA
Pressure: 30.12"   Gusts: NA
Location:  35.24°N, 85.84°W
Report Text: KBGF 251555Z AUTO VRB03KT 10SM CLR 18/11 A3012 RMK
Loading
Personal Weather Stations






























Interactive Weather Map
Tropical Storm Tracking
New forecast layout! Learn more

10-Day Weather Forecast

Advertisements
Track Severe Weather on mobile